Time;durP1;ratioP1;P1;durP2;ratioP2;P2;SDS_P1;SDS_P2;PMS_P1;PMS_P2;Temp;Humidity;BMP_temperature;BMP_pressure;BME280_temperature;BME280_humidity;BME280_pressure;Samples;Min_cycle;Max_cycle;Signal;HPM_P1;HPM_P2
2023/07/08 00:01:12;;;;;;;;;;;;;;;28.85;52.65;101091.53;5099628;28;20551;-85
2023/07/08 00:03:37;;;;;;;;;;;;;;;28.86;52.48;101090.66;5063675;28;20010;-85
2023/07/08 00:06:03;;;;;;;;;;;;;;;28.88;52.32;101099.56;5099727;28;19951;-85
2023/07/08 00:08:28;;;;;;;;;;;;;;;28.86;52.51;101106.78;5076806;27;19919;-83
2023/07/08 00:10:54;;;;;;;;;;;;;;;28.83;52.31;101108.59;5072133;28;19955;-85
2023/07/08 00:13:19;;;;;;;;;;;;;;;28.81;52.48;101109.53;5091480;28;19923;-84
2023/07/08 00:15:45;;;;;;;;;;;;;;;28.83;52.62;101110.41;5077827;28;19969;-85
2023/07/08 00:18:14;;;;;;;;;;;;;;;28.82;52.60;101106.81;5077699;27;19927;-86
2023/07/08 00:20:43;;;;;;;;;;;;;;;28.83;52.60;101110.41;5102479;28;19924;-85
2023/07/08 00:23:08;;;;;;;;;;;;;;;28.83;52.42;101105.03;5091549;28;20359;-85
2023/07/08 00:25:34;;;;;;;;;;;;;;;28.79;52.64;101104.19;5068950;28;19920;-84
2023/07/08 00:27:59;;;;;;;;;;;;;;;28.79;52.42;101100.63;5068720;28;19931;-84
2023/07/08 00:30:29;;;;;;;;;;;;;;;28.81;52.59;101115.81;5079716;28;19944;-85
2023/07/08 00:32:55;;;;;;;;;;;;;;;28.80;52.47;101108.63;5072996;28;19916;-84
2023/07/08 00:35:38;;;;;;;;;;;;;;;28.80;52.50;101102.38;5074585;28;19919;-84
2023/07/08 00:38:15;;;;;;;;;;;;;;;28.78;52.74;101112.25;5109361;27;19931;-83
2023/07/08 00:41:00;;;;;;;;;;;;;;;28.79;52.71;101116.75;5120570;27;20320;-85
2023/07/08 00:43:49;;;;;;;;;;;;;;;28.78;52.47;101118.53;5093088;28;19968;-85
2023/07/08 00:46:29;;;;;;;;;;;;;;;28.77;52.39;101127.50;5085099;28;19923;-82
2023/07/08 00:49:07;;;;;;;;;;;;;;;28.77;52.64;101124.81;5096381;28;19919;-83
2023/07/08 00:51:33;;;;;;;;;;;;;;;28.77;52.53;101119.44;5099942;28;19974;-83
2023/07/08 00:53:58;;;;;;;;;;;;;;;28.75;52.93;101121.28;5076999;28;19916;-83
2023/07/08 00:56:34;;;;;;;;;;;;;;;28.75;52.77;101125.75;5073335;28;19912;-84
2023/07/08 00:59:07;;;;;;;;;;;;;;;28.70;52.67;101124.94;5097347;28;19961;-84
2023/07/08 01:01:34;;;;;;;;;;;;;;;28.71;52.89;101132.09;5072865;28;19969;-84
2023/07/08 01:04:01;;;;;;;;;;;;;;;28.70;52.87;101128.53;5072792;28;19977;-84
2023/07/08 01:06:31;;;;;;;;;;;;;;;28.69;52.83;101133.91;5072694;28;19973;-84
2023/07/08 01:08:57;;;;;;;;;;;;;;;28.69;52.79;101132.13;5075618;28;20024;-84
2023/07/08 01:11:22;;;;;;;;;;;;;;;28.71;52.84;101130.28;5094332;28;19919;-84
2023/07/08 01:13:48;;;;;;;;;;;;;;;28.68;52.51;101127.66;5090514;28;19913;-84
2023/07/08 01:16:14;;;;;;;;;;;;;;;28.68;52.80;101124.97;5075627;28;19919;-84
2023/07/08 01:18:40;;;;;;;;;;;;;;;28.68;52.78;101127.66;5072553;28;19958;-84
2023/07/08 01:21:26;;;;;;;;;;;;;;;28.69;52.60;101128.53;5072668;28;19927;-84
2023/07/08 01:23:51;;;;;;;;;;;;;;;28.66;52.64;101129.50;5072474;28;19912;-84
2023/07/08 01:26:17;;;;;;;;;;;;;;;28.67;53.03;101133.06;5085324;28;19957;-85
2023/07/08 01:28:42;;;;;;;;;;;;;;;28.67;52.69;101128.56;5069869;28;20312;-83
2023/07/08 01:31:07;;;;;;;;;;;;;;;28.67;52.94;101125.88;5079513;28;19916;-84
2023/07/08 01:33:34;;;;;;;;;;;;;;;28.65;53.04;101129.50;5078851;28;19916;-84
2023/07/08 01:35:59;;;;;;;;;;;;;;;28.62;52.79;101128.63;5090993;28;19912;-84
2023/07/08 01:38:26;;;;;;;;;;;;;;;28.65;52.96;101134.88;5097851;28;19922;-84
2023/07/08 01:40:52;;;;;;;;;;;;;;;28.61;52.71;101116.09;5078144;28;19920;-84
2023/07/08 01:43:17;;;;;;;;;;;;;;;28.61;52.70;101118.78;5097495;28;19934;-83
2023/07/08 01:45:43;;;;;;;;;;;;;;;28.62;52.58;101112.50;5099829;28;19920;-83
2023/07/08 01:48:10;;;;;;;;;;;;;;;28.59;52.90;101108.97;5102645;28;19924;-83
2023/07/08 01:50:36;;;;;;;;;;;;;;;28.59;53.00;101117.91;5086014;28;19923;-84
2023/07/08 01:53:03;;;;;;;;;;;;;;;28.56;53.01;101112.59;5080034;28;19926;-83
2023/07/08 01:55:30;;;;;;;;;;;;;;;28.58;52.96;101110.78;5098360;28;19924;-84
2023/07/08 01:57:55;;;;;;;;;;;;;;;28.59;52.83;101114.34;5097817;28;19923;-83
2023/07/08 02:00:21;;;;;;;;;;;;;;;28.58;53.00;101109.91;5068993;28;19925;-84
2023/07/08 02:02:46;;;;;;;;;;;;;;;28.56;52.92;101103.66;5083415;27;19916;-83
2023/07/08 02:05:12;;;;;;;;;;;;;;;28.55;53.02;101115.31;5098835;27;19966;-83
2023/07/08 02:07:37;;;;;;;;;;;;;;;28.55;53.08;101118.00;5117266;27;20308;-85
2023/07/08 02:10:03;;;;;;;;;;;;;;;28.54;52.84;101118.91;5103878;27;20034;-83
2023/07/08 02:12:28;;;;;;;;;;;;;;;28.56;52.62;101109.03;5084242;28;19997;-84
2023/07/08 02:14:54;;;;;;;;;;;;;;;28.56;53.08;101119.78;5083256;27;19926;-83
2023/07/08 02:17:19;;;;;;;;;;;;;;;28.55;52.94;101120.69;5117303;27;20350;-82
2023/07/08 02:19:45;;;;;;;;;;;;;;;28.54;52.98;101122.47;5104163;27;20304;-83
2023/07/08 02:22:10;;;;;;;;;;;;;;;28.53;53.10;101115.34;5088025;28;20618;-82
2023/07/08 02:24:35;;;;;;;;;;;;;;;28.51;53.09;101124.31;5102348;27;20423;-84
2023/07/08 02:27:01;;;;;;;;;;;;;;;28.51;52.80;101113.56;5100634;27;19923;-83
2023/07/08 02:29:27;;;;;;;;;;;;;;;28.51;52.96;101122.53;5101657;27;19916;-84
2023/07/08 02:31:52;;;;;;;;;;;;;;;28.50;53.00;101122.56;5125399;27;19916;-83
2023/07/08 02:34:18;;;;;;;;;;;;;;;28.49;53.15;101127.06;5103250;27;19916;-85
2023/07/08 02:36:43;;;;;;;;;;;;;;;28.47;53.05;101128.84;5088675;27;19924;-83
2023/07/08 02:39:10;;;;;;;;;;;;;;;28.49;53.00;101136.88;5105822;27;19919;-83
2023/07/08 02:41:36;;;;;;;;;;;;;;;28.47;53.22;101139.59;5105107;27;19920;-83
2023/07/08 02:44:01;;;;;;;;;;;;;;;28.47;53.05;101133.28;5085428;28;19924;-83
2023/07/08 02:46:27;;;;;;;;;;;;;;;28.45;53.13;101149.47;5115426;27;20427;-83
2023/07/08 02:49:07;;;;;;;;;;;;;;;28.46;53.07;101139.59;5108533;27;19915;-86
2023/07/08 02:51:33;;;;;;;;;;;;;;;28.47;53.22;101133.28;5107352;27;19915;-85
2023/07/08 02:53:58;;;;;;;;;;;;;;;28.47;53.12;101138.66;5101887;27;19931;-84
2023/07/08 02:56:26;;;;;;;;;;;;;;;28.46;52.97;101140.47;5116566;27;19951;-84
2023/07/08 02:58:51;;;;;;;;;;;;;;;28.45;53.35;101137.81;5089208;28;19937;-85
2023/07/08 03:01:17;;;;;;;;;;;;;;;28.42;53.18;101138.75;5113208;27;19973;-85
2023/07/08 03:03:46;;;;;;;;;;;;;;;28.42;53.29;101146.78;5083462;28;19926;-85
2023/07/08 03:06:12;;;;;;;;;;;;;;;28.41;53.01;101139.66;5102828;27;20460;-85
2023/07/08 03:08:37;;;;;;;;;;;;;;;28.43;53.04;101146.78;5102197;27;19987;-85
2023/07/08 03:11:03;;;;;;;;;;;;;;;28.41;53.28;101142.34;5085659;28;20026;-85
2023/07/08 03:13:29;;;;;;;;;;;;;;;28.42;53.18;101146.78;5085003;28;20393;-85
2023/07/08 03:15:55;;;;;;;;;;;;;;;28.42;53.21;101152.16;5081457;28;19973;-85
2023/07/08 03:18:23;;;;;;;;;;;;;;;28.39;53.25;101157.59;5081133;28;19920;-84
2023/07/08 03:20:48;;;;;;;;;;;;;;;28.35;53.18;101163.94;5082292;28;20335;-84
2023/07/08 03:23:14;;;;;;;;;;;;;;;28.40;53.07;101170.09;5081048;28;19937;-84
2023/07/08 03:25:39;;;;;;;;;;;;;;;28.37;53.25;101179.09;5082413;28;19923;-84
2023/07/08 03:28:13;;;;;;;;;;;;;;;28.36;53.20;101176.44;5059096;28;20337;-85
2023/07/08 03:30:39;;;;;;;;;;;;;;;28.35;53.40;101180.91;5069991;28;19916;-85
2023/07/08 03:33:04;;;;;;;;;;;;;;;28.35;53.29;101183.59;5056133;28;19932;-84
2023/07/08 03:35:30;;;;;;;;;;;;;;;28.33;53.34;101180.06;5055462;28;19920;-82
2023/07/08 03:37:55;;;;;;;;;;;;;;;28.31;53.48;101176.50;5063320;28;19959;-85
2023/07/08 03:40:21;;;;;;;;;;;;;;;28.30;53.41;101174.72;5070341;28;20417;-83
2023/07/08 03:42:46;;;;;;;;;;;;;;;28.33;53.18;101172.00;5053534;28;20497;-85
2023/07/08 03:45:12;;;;;;;;;;;;;;;28.29;53.07;101167.56;5072932;28;19917;-84
2023/07/08 03:47:37;;;;;;;;;;;;;;;28.27;53.18;101168.50;5058174;28;20015;-84
2023/07/08 03:50:03;;;;;;;;;;;;;;;28.30;53.10;101174.72;5068796;28;20410;-84
2023/07/08 03:52:28;;;;;;;;;;;;;;;28.31;53.19;101170.25;5060870;28;19975;-85
2023/07/08 03:54:53;;;;;;;;;;;;;;;28.31;53.33;101172.94;5056440;28;20423;-85
2023/07/08 03:57:19;;;;;;;;;;;;;;;28.29;53.24;101177.44;5058846;28;19924;-84
2023/07/08 03:59:44;;;;;;;;;;;;;;;28.28;53.04;101172.94;5059463;28;19943;-84
2023/07/08 04:02:10;;;;;;;;;;;;;;;28.31;53.03;101170.25;5060430;28;20660;-84
2023/07/08 04:04:37;;;;;;;;;;;;;;;28.29;52.98;101175.63;5078192;28;20357;-83
2023/07/08 04:07:03;;;;;;;;;;;;;;;28.30;53.32;101168.44;5073220;28;19968;-83
2023/07/08 04:09:28;;;;;;;;;;;;;;;28.29;53.26;101169.38;5054602;28;20290;-83
2023/07/08 04:11:54;;;;;;;;;;;;;;;28.28;53.19;101173.88;5061022;28;19925;-83
2023/07/08 04:14:19;;;;;;;;;;;;;;;28.27;53.27;101165.81;5063368;28;20374;-83
2023/07/08 04:16:56;;;;;;;;;;;;;;;28.29;53.41;101161.31;5053984;28;19995;-84
2023/07/08 04:19:23;;;;;;;;;;;;;;;28.27;53.22;101153.28;5072430;28;19920;-86
2023/07/08 04:21:48;;;;;;;;;;;;;;;28.27;53.29;101155.94;5064889;28;19924;-84
2023/07/08 04:24:14;;;;;;;;;;;;;;;28.26;53.45;101162.25;5057454;28;19923;-83
2023/07/08 04:26:40;;;;;;;;;;;;;;;28.26;53.52;101167.63;5054682;28;20317;-83
2023/07/08 04:29:07;;;;;;;;;;;;;;;28.28;53.13;101164.88;5078133;28;19923;-82
2023/07/08 04:31:32;;;;;;;;;;;;;;;28.24;53.31;101156.00;5058554;28;20381;-84
2023/07/08 04:33:58;;;;;;;;;;;;;;;28.26;53.36;101148.81;5074859;28;19916;-84
2023/07/08 04:36:24;;;;;;;;;;;;;;;28.25;53.49;101157.78;5078620;28;20438;-83
2023/07/08 04:38:50;;;;;;;;;;;;;;;28.20;53.65;101144.41;5076384;28;19916;-84
2023/07/08 04:41:15;;;;;;;;;;;;;;;28.22;53.41;101141.72;5057160;28;20279;-83
2023/07/08 04:43:41;;;;;;;;;;;;;;;28.19;53.59;101137.28;5076240;28;19924;-83
2023/07/08 04:46:09;;;;;;;;;;;;;;;28.20;53.47;101140.84;5076376;28;20316;-84
2023/07/08 04:48:35;;;;;;;;;;;;;;;28.14;53.39;101140.91;5073012;28;20325;-82
2023/07/08 04:51:01;;;;;;;;;;;;;;;28.16;53.17;101142.66;5076012;28;19923;-83
2023/07/08 04:53:26;;;;;;;;;;;;;;;28.14;53.38;101148.97;5074692;28;19916;-84
2023/07/08 04:58:53;;;;;;;;;;;;;;;28.17;53.30;101148.91;5003359;28;20007;-84
2023/07/08 05:01:19;;;;;;;;;;;;;;;28.15;53.17;101154.34;5008741;28;19922;-83
2023/07/08 05:03:45;;;;;;;;;;;;;;;28.13;53.24;101156.16;4992874;28;20057;-83
2023/07/08 05:06:10;;;;;;;;;;;;;;;28.08;53.55;101160.66;5007433;28;19957;-82
2023/07/08 05:08:36;;;;;;;;;;;;;;;28.04;53.65;101158.03;4980416;28;19928;-83
2023/07/08 05:11:01;;;;;;;;;;;;;;;28.06;53.39;101167.84;4977762;28;19931;-83
2023/07/08 05:13:27;;;;;;;;;;;;;;;28.10;53.15;101171.41;5011961;28;19952;-81
2023/07/08 05:15:52;;;;;;;;;;;;;;;28.07;53.17;101166.97;5009396;28;19929;-82
2023/07/08 05:18:17;;;;;;;;;;;;;;;28.10;53.01;101163.34;5010012;28;19987;-81
2023/07/08 05:20:43;;;;;;;;;;;;;;;28.09;53.36;101164.22;4971240;28;20430;-83
2023/07/08 05:23:08;;;;;;;;;;;;;;;28.11;53.25;101159.72;4989167;28;20310;-82
2023/07/08 05:25:34;;;;;;;;;;;;;;;28.12;53.23;101156.16;5015767;28;20319;-82
2023/07/08 05:28:00;;;;;;;;;;;;;;;27.75;52.48;101162.81;5011908;28;20394;-84
2023/07/08 05:30:25;;;;;;;;;;;;;;;27.60;52.55;101153.13;5010720;28;19917;-86
2023/07/08 05:32:51;;;;;;;;;;;;;;;27.39;53.13;101159.59;5015743;28;20448;-85
2023/07/08 05:35:16;;;;;;;;;;;;;;;27.38;53.47;101162.28;5012761;28;19921;-86
2023/07/08 05:37:44;;;;;;;;;;;;;;;27.39;53.17;101156.91;4993447;28;19926;-86
2023/07/08 05:40:10;;;;;;;;;;;;;;;27.56;53.42;101163.91;5002700;28;20059;-85
2023/07/08 05:42:35;;;;;;;;;;;;;;;27.64;53.09;101153.97;4998673;28;20011;-84
2023/07/08 05:45:01;;;;;;;;;;;;;;;27.74;52.77;101152.97;5018633;28;20401;-86
2023/07/08 05:47:26;;;;;;;;;;;;;;;27.71;52.29;101150.34;5008986;28;20354;-81
2023/07/08 05:49:52;;;;;;;;;;;;;;;27.75;52.02;101157.44;4995253;28;20021;-81
2023/07/08 05:52:17;;;;;;;;;;;;;;;27.80;51.06;101152.03;5012102;28;20314;-83
2023/07/08 05:54:42;;;;;;;;;;;;;;;27.88;50.61;101152.88;5017244;28;19929;-84
2023/07/08 05:57:08;;;;;;;;;;;;;;;27.94;50.14;101154.56;5006596;28;19925;-83
2023/07/08 05:59:34;;;;;;;;;;;;;;;28.00;49.83;101157.19;5016343;28;19988;-84
2023/07/08 06:02:00;;;;;;;;;;;;;;;28.01;49.62;101154.50;5014799;28;19921;-84
2023/07/08 06:04:26;;;;;;;;;;;;;;;28.03;49.49;101157.16;5031333;28;19921;-82
2023/07/08 06:06:51;;;;;;;;;;;;;;;28.12;49.17;101169.59;5044413;28;19928;-82
2023/07/08 06:09:17;;;;;;;;;;;;;;;28.19;48.83;101168.59;5030559;28;19921;-83
2023/07/08 06:11:42;;;;;;;;;;;;;;;28.17;48.79;101165.03;5028334;28;20446;-84
2023/07/08 06:14:07;;;;;;;;;;;;;;;28.17;48.60;101168.63;5024217;28;20487;-83
2023/07/08 06:16:34;;;;;;;;;;;;;;;28.16;48.50;101166.84;5002370;28;20826;-85
2023/07/08 06:19:00;;;;;;;;;;;;;;;28.18;48.64;101162.34;4995597;28;19999;-83
2023/07/08 06:21:25;;;;;;;;;;;;;;;28.21;48.08;101167.69;5023655;28;19925;-83
2023/07/08 06:23:51;;;;;;;;;;;;;;;28.29;48.03;101175.63;5032627;28;19965;-83
2023/07/08 06:26:16;;;;;;;;;;;;;;;28.28;47.99;101173.88;5029061;28;19944;-82
2023/07/08 06:28:42;;;;;;;;;;;;;;;28.27;48.07;101176.56;5033853;28;19920;-82
2023/07/08 06:31:07;;;;;;;;;;;;;;;28.29;47.58;101178.31;5025167;28;20338;-83
2023/07/08 06:33:32;;;;;;;;;;;;;;;28.26;47.80;101178.38;5029377;28;20465;-83
2023/07/08 06:35:58;;;;;;;;;;;;;;;28.23;47.48;101171.22;5028687;28;20352;-82
2023/07/08 06:38:23;;;;;;;;;;;;;;;28.28;47.44;101178.31;5029845;28;19925;-83
2023/07/08 06:40:49;;;;;;;;;;;;;;;28.26;47.28;101173.00;5029539;28;20519;-84
2023/07/08 06:43:15;;;;;;;;;;;;;;;28.35;47.17;101188.09;5011125;28;20449;-83
2023/07/08 06:45:44;;;;;;;;;;;;;;;28.29;47.37;101180.13;4997730;28;19925;-84
2023/07/08 06:48:09;;;;;;;;;;;;;;;28.25;47.16;101173.88;5030214;28;19982;-81
2023/07/08 06:50:34;;;;;;;;;;;;;;;28.34;47.04;101179.16;5029469;28;19921;-83
2023/07/08 06:53:00;;;;;;;;;;;;;;;28.34;46.84;101179.16;5010698;28;19940;-83
2023/07/08 06:55:25;;;;;;;;;;;;;;;28.33;47.00;101185.41;5030163;28;20381;-84
2023/07/08 06:57:51;;;;;;;;;;;;;;;28.32;46.91;101178.28;5022578;28;19924;-82
2023/07/08 07:00:17;;;;;;;;;;;;;;;28.33;46.70;101188.09;5011440;28;20390;-82
2023/07/08 07:02:43;;;;;;;;;;;;;;;28.39;46.66;101187.16;5027463;28;19943;-84
2023/07/08 07:05:08;;;;;;;;;;;;;;;28.46;46.27;101196.00;5023598;28;19929;-84
2023/07/08 07:07:34;;;;;;;;;;;;;;;28.42;46.55;101203.22;5008408;28;20301;-83
2023/07/08 07:09:59;;;;;;;;;;;;;;;28.36;46.39;101193.47;5007358;28;19921;-84
2023/07/08 07:12:25;;;;;;;;;;;;;;;28.36;46.64;101198.84;5005271;28;19917;-85
2023/07/08 07:14:54;;;;;;;;;;;;;;;28.29;46.64;101205.16;4997680;28;20321;-85
2023/07/08 07:17:26;;;;;;;;;;;;;;;28.43;46.32;101205.00;5027363;28;19917;-86
2023/07/08 07:19:51;;;;;;;;;;;;;;;28.36;46.25;101196.16;4996864;28;19925;-83
2023/07/08 07:22:17;;;;;;;;;;;;;;;28.40;46.27;101205.03;5029453;28;19921;-83
2023/07/08 07:24:42;;;;;;;;;;;;;;;28.45;46.03;101208.56;5026374;28;20021;-84
2023/07/08 07:27:08;;;;;;;;;;;;;;;28.41;46.21;101206.81;5029230;28;20374;-84
2023/07/08 07:29:43;;;;;;;;;;;;;;;28.42;46.22;101224.72;5028915;28;19932;-84
2023/07/08 07:32:09;;;;;;;;;;;;;;;28.43;46.08;101222.00;5011506;28;19917;-82
2023/07/08 07:34:34;;;;;;;;;;;;;;;28.37;46.07;101224.78;5028554;28;19944;-83
2023/07/08 07:37:00;;;;;;;;;;;;;;;28.35;46.19;101218.53;5025925;28;19931;-83
2023/07/08 07:39:28;;;;;;;;;;;;;;;28.41;45.61;101223.81;5021317;28;20287;-83
2023/07/08 07:41:54;;;;;;;;;;;;;;;28.37;45.99;101216.72;5012812;28;20378;-84
2023/07/08 07:44:19;;;;;;;;;;;;;;;28.36;45.98;101224.78;5012178;28;20016;-84
2023/07/08 07:46:46;;;;;;;;;;;;;;;28.35;45.98;101223.03;4997803;28;19920;-84
2023/07/08 07:49:11;;;;;;;;;;;;;;;28.42;45.66;101222.03;5023519;28;19924;-83
2023/07/08 07:51:37;;;;;;;;;;;;;;;28.48;45.65;101218.38;5029511;28;19921;-84
2023/07/08 07:54:02;;;;;;;;;;;;;;;28.46;45.36;101223.75;5031907;28;20061;-85
2023/07/08 07:56:28;;;;;;;;;;;;;;;28.53;45.19;101224.59;5023287;28;19913;-83
2023/07/08 07:58:53;;;;;;;;;;;;;;;28.47;45.21;101217.50;5003943;28;20013;-84
2023/07/08 08:01:19;;;;;;;;;;;;;;;28.37;45.29;101210.47;5026651;28;19922;-84
2023/07/08 08:03:45;;;;;;;;;;;;;;;28.36;45.39;101211.34;5036353;28;19955;-83
2023/07/08 08:06:10;;;;;;;;;;;;;;;28.42;45.12;101203.22;5019868;28;19942;-83
2023/07/08 08:08:36;;;;;;;;;;;;;;;28.51;44.93;101208.53;5024125;28;19921;-83
2023/07/08 08:11:01;;;;;;;;;;;;;;;28.46;44.82;101196.91;5024781;28;19983;-84
2023/07/08 08:13:26;;;;;;;;;;;;;;;28.53;44.73;101205.78;5026725;28;19917;-84
2023/07/08 08:15:58;;;;;;;;;;;;;;;28.60;44.63;101194.94;5022919;28;19921;-83
2023/07/08 08:18:23;;;;;;;;;;;;;;;28.49;44.95;101199.59;5024172;28;19925;-83
2023/07/08 08:20:51;;;;;;;;;;;;;;;28.46;44.88;101201.38;5032936;28;21344;-83
2023/07/08 08:23:19;;;;;;;;;;;;;;;28.43;44.81;101200.50;5026333;28;20013;-84
2023/07/08 08:25:44;;;;;;;;;;;;;;;28.42;44.89;101204.09;5031693;28;19932;-83
2023/07/08 08:28:10;;;;;;;;;;;;;;;28.44;44.72;101201.41;5022079;28;19922;-85
2023/07/08 08:30:35;;;;;;;;;;;;;;;28.30;44.72;101182.78;5011591;28;19929;-85
2023/07/08 08:33:01;;;;;;;;;;;;;;;28.53;44.61;101197.72;5027854;28;19921;-84
2023/07/08 08:35:26;;;;;;;;;;;;;;;28.46;44.41;101194.22;5002356;28;20016;-82
2023/07/08 08:37:54;;;;;;;;;;;;;;;28.47;44.46;101192.41;5023986;28;19925;-84
2023/07/08 08:40:20;;;;;;;;;;;;;;;28.47;44.55;101187.94;4990286;28;19925;-83
2023/07/08 08:43:03;;;;;;;;;;;;;;;28.48;44.68;101195.06;5005454;28;19921;-84
2023/07/08 08:45:29;;;;;;;;;;;;;;;28.49;44.08;101196.91;5007284;28;20000;-83
2023/07/08 08:47:57;;;;;;;;;;;;;;;28.39;44.60;101198.78;5007704;28;20073;-84
2023/07/08 08:50:28;;;;;;;;;;;;;;;28.52;44.17;101204.91;5021298;28;20352;-81
2023/07/08 08:52:55;;;;;;;;;;;;;;;28.57;43.95;101207.53;5024073;28;19947;-83
2023/07/08 08:55:21;;;;;;;;;;;;;;;28.52;44.07;101214.78;5010501;28;19932;-83
2023/07/08 08:58:05;;;;;;;;;;;;;;;28.52;44.02;101215.66;5015768;28;19928;-84
2023/07/08 09:00:55;;;;;;;;;;;;;;;28.49;44.22;101209.44;4996924;28;20649;-84
2023/07/08 09:03:41;;;;;;;;;;;;;;;28.44;44.11;101214.84;5014051;28;19921;-84
2023/07/08 09:06:39;;;;;;;;;;;;;;;28.52;43.83;101215.66;5004876;28;20001;-82
2023/07/08 09:09:16;;;;;;;;;;;;;;;28.52;43.78;101217.47;5006616;28;20020;-83
2023/07/08 09:11:45;;;;;;;;;;;;;;;28.52;43.74;101217.47;4992638;28;19928;-84
2023/07/08 09:14:31;;;;;;;;;;;;;;;28.66;43.54;101214.56;4996320;28;19929;-83
2023/07/08 09:17:22;;;;;;;;;;;;;;;28.60;43.89;101212.88;5006451;28;19917;-84
2023/07/08 09:19:58;;;;;;;;;;;;;;;28.54;43.72;101216.53;4999544;28;19918;-82
2023/07/08 09:22:33;;;;;;;;;;;;;;;28.53;43.99;101217.44;4993168;28;19918;-83
2023/07/08 09:25:12;;;;;;;;;;;;;;;28.56;44.10;101227.25;5011629;28;20513;-83
2023/07/08 09:28:06;;;;;;;;;;;;;;;28.55;44.11;101225.47;5007866;28;19918;-83
2023/07/08 09:30:37;;;;;;;;;;;;;;;28.56;44.15;101224.59;5006713;28;19925;-83
2023/07/08 09:33:02;;;;;;;;;;;;;;;28.60;44.06;101226.31;4998031;28;19921;-84
2023/07/08 09:39:15;;;;;;;;;;;;;;;28.57;44.34;101221.84;4930928;29;19926;-84
2023/07/08 09:41:59;;;;;;;;;;;;;;;28.55;44.27;101222.78;4915239;29;19919;-83
2023/07/08 09:44:58;;;;;;;;;;;;;;;28.55;44.03;101218.28;4924330;29;20405;-83
2023/07/08 09:53:50;;;;;;;;;;;;;;;28.55;44.04;101212.03;4950669;29;20083;-84
2023/07/08 10:00:12;;;;;;;;;;;;;;;28.61;43.82;101204.78;4908978;29;20072;-84
2023/07/08 10:06:42;;;;;;;;;;;;;;;28.71;43.61;101207.34;4930362;29;19930;-84
2023/07/08 10:12:22;;;;;;;;;;;;;;;28.57;43.77;101192.28;4902967;29;20460;-84
2023/07/08 10:14:52;;;;;;;;;;;;;;;28.56;43.78;101195.03;4940337;28;19922;-83
2023/07/08 10:17:17;;;;;;;;;;;;;;;28.43;44.04;101199.63;4979021;28;20362;-83
2023/07/08 10:19:43;;;;;;;;;;;;;;;28.49;43.80;101199.59;4978839;28;19922;-82
2023/07/08 10:22:31;;;;;;;;;;;;;;;28.58;43.45;101201.25;4975699;28;19926;-83
2023/07/08 10:25:01;;;;;;;;;;;;;;;28.62;43.56;101203.00;4985959;28;21887;-84
2023/07/08 10:27:45;;;;;;;;;;;;;;;28.74;43.10;101196.53;4987340;28;19921;-83
2023/07/08 10:30:34;;;;;;;;;;;;;;;28.58;43.72;101182.44;5028683;28;19983;-84
2023/07/08 10:33:08;;;;;;;;;;;;;;;28.68;43.49;101188.56;5028065;28;19929;-83
2023/07/08 10:35:35;;;;;;;;;;;;;;;28.54;43.66;101184.28;5028238;28;19922;-84
2023/07/08 10:38:05;;;;;;;;;;;;;;;28.53;43.74;101201.34;5007856;28;19921;-84
2023/07/08 10:40:39;;;;;;;;;;;;;;;28.61;43.75;101185.97;5026674;28;20027;-84
2023/07/08 10:43:20;;;;;;;;;;;;;;;28.58;43.72;101183.34;5024258;28;19925;-84
2023/07/08 10:45:48;;;;;;;;;;;;;;;28.55;43.61;101179.78;5024752;28;20385;-84
2023/07/08 10:48:37;;;;;;;;;;;;;;;28.69;43.33;101188.56;5033524;28;19928;-85
2023/07/08 10:51:06;;;;;;;;;;;;;;;28.68;43.54;101178.72;4966632;28;19936;-85
2023/07/08 10:53:32;;;;;;;;;;;;;;;28.71;43.40;101185.84;5009855;28;20326;-85
2023/07/08 10:56:20;;;;;;;;;;;;;;;28.78;43.17;101177.66;5025375;28;20416;-84
2023/07/08 10:58:58;;;;;;;;;;;;;;;28.76;43.27;101175.91;5013542;28;19921;-84
2023/07/08 11:01:23;;;;;;;;;;;;;;;28.82;43.08;101183.88;5025126;28;19921;-83
2023/07/08 11:03:49;;;;;;;;;;;;;;;28.66;43.54;101179.63;5026033;28;20398;-84
2023/07/08 11:06:29;;;;;;;;;;;;;;;28.63;43.64;101183.25;5029381;28;19984;-84
2023/07/08 11:08:56;;;;;;;;;;;;;;;28.65;43.54;101183.25;5024059;28;19932;-84
2023/07/08 11:11:25;;;;;;;;;;;;;;;28.65;43.58;101188.63;5028756;28;19925;-83
2023/07/08 11:13:52;;;;;;;;;;;;;;;28.60;43.83;101186.88;5014585;28;20386;-83
2023/07/08 11:16:28;;;;;;;;;;;;;;;28.58;43.89;101199.47;5026457;28;19966;-83
2023/07/08 11:19:09;;;;;;;;;;;;;;;28.72;43.58;101188.50;5013061;28;20012;-83
2023/07/08 11:21:44;;;;;;;;;;;;;;;28.73;43.37;101182.22;5009296;28;19917;-83
2023/07/08 11:24:28;;;;;;;;;;;;;;;28.72;43.25;101183.13;5027340;28;19990;-84
2023/07/08 11:27:26;;;;;;;;;;;;;;;28.81;43.00;101177.63;5027112;28;19926;-84
2023/07/08 11:29:51;;;;;;;;;;;;;;;28.70;43.52;101171.53;5010504;28;19925;-85
2023/07/08 11:32:18;;;;;;;;;;;;;;;28.75;43.08;101166.97;5029919;28;19924;-84
2023/07/08 11:34:44;;;;;;;;;;;;;;;28.68;43.65;101157.22;5026124;28;20457;-86
2023/07/08 11:37:10;;;;;;;;;;;;;;;28.75;43.29;101163.41;5023045;28;19962;-82
2023/07/08 11:39:39;;;;;;;;;;;;;;;28.69;43.21;101171.53;5014861;28;19925;-83
2023/07/08 11:42:06;;;;;;;;;;;;;;;28.73;43.16;101176.84;5022292;28;20415;-85
2023/07/08 11:44:33;;;;;;;;;;;;;;;28.65;43.14;101181.44;5020304;28;19972;-84
2023/07/08 11:46:58;;;;;;;;;;;;;;;28.57;43.54;101183.34;5002369;28;19949;-83
2023/07/08 11:49:23;;;;;;;;;;;;;;;28.57;43.68;101178.84;5012594;28;19957;-84
2023/07/08 11:51:49;;;;;;;;;;;;;;;28.65;43.42;101186.81;4995462;28;19922;-84
2023/07/08 11:54:14;;;;;;;;;;;;;;;28.65;43.26;101186.81;5010891;28;20385;-83
2023/07/08 11:56:47;;;;;;;;;;;;;;;28.61;43.46;101195.84;5012047;28;20532;-84
2023/07/08 11:59:15;;;;;;;;;;;;;;;28.51;43.90;101195.09;5011503;28;19921;-84
2023/07/08 12:02:07;;;;;;;;;;;;;;;28.54;43.55;101208.47;5026711;28;19917;-85
2023/07/08 12:04:35;;;;;;;;;;;;;;;28.57;43.46;101189.59;5027323;28;20106;-85
2023/07/08 12:07:06;;;;;;;;;;;;;;;28.60;43.63;101191.38;5011490;28;19928;-86
2023/07/08 12:09:36;;;;;;;;;;;;;;;28.57;43.63;101196.78;5020418;28;19918;-86
2023/07/08 12:12:03;;;;;;;;;;;;;;;28.59;43.42;101189.59;5009332;28;19917;-86
2023/07/08 12:14:28;;;;;;;;;;;;;;;28.63;43.36;101191.31;5013048;28;19925;-87
2023/07/08 12:16:54;;;;;;;;;;;;;;;28.68;43.19;101184.09;5009174;28;19927;-86
2023/07/08 12:19:20;;;;;;;;;;;;;;;28.62;43.26;101176.13;5008656;28;20004;-88
2023/07/08 12:28:26;;;;;;;;;;;;;;;28.57;43.25;101181.53;5010377;28;20444;-85
2023/07/08 12:31:16;;;;;;;;;;;;;;;28.55;43.33;101198.59;5021523;28;20440;-86
2023/07/08 12:34:05;;;;;;;;;;;;;;;28.52;43.04;101191.47;5015671;28;19940;-87
2023/07/08 12:36:35;;;;;;;;;;;;;;;28.56;43.18;101187.84;4990847;28;19975;-85
2023/07/08 12:39:08;;;;;;;;;;;;;;;28.56;43.08;101197.72;5012576;28;20378;-85
2023/07/08 12:41:34;;;;;;;;;;;;;;;28.41;43.56;101191.59;5002568;28;19917;-85
2023/07/08 12:44:05;;;;;;;;;;;;;;;28.37;43.81;101200.59;5012185;28;20344;-84
2023/07/08 12:49:33;;;;;;;;;;;;;;;28.39;43.59;101193.41;5024724;28;19923;-85
2023/07/08 12:52:30;;;;;;;;;;;;;;;28.57;43.07;101197.66;4994785;28;19929;-84
2023/07/08 12:54:55;;;;;;;;;;;;;;;28.42;43.08;101160.22;5011358;28;19921;-83
2023/07/08 12:57:27;;;;;;;;;;;;;;;28.57;43.27;101186.91;5010426;28;20377;-86
2023/07/08 13:00:00;;;;;;;;;;;;;;;28.53;43.45;101176.22;5014611;28;19948;-85
2023/07/08 13:15:42;;;;;;;;;;;;;;;28.62;42.74;101186.88;5009878;28;19955;-86
2023/07/08 13:24:44;;;;;;;;;;;;;;;28.75;42.37;101209.09;4989287;28;19925;-84
2023/07/08 13:27:23;;;;;;;;;;;;;;;28.66;42.78;101217.25;4972374;28;19929;-87
2023/07/08 13:29:50;;;;;;;;;;;;;;;28.65;42.44;101213.69;4984319;28;20315;-87
2023/07/08 13:32:16;;;;;;;;;;;;;;;28.68;42.39;101219.03;4970642;28;20382;-86
2023/07/08 13:34:41;;;;;;;;;;;;;;;28.62;42.55;101217.31;4971225;28;19921;-87
2023/07/08 13:37:10;;;;;;;;;;;;;;;28.62;42.31;101211.06;4964128;28;20399;-87